sensor_id;sensor_type;location;lat;lon;timestamp;temperature;humidity
26164;DHT22;13914;48.178;11.716;2022-09-30T00:01:35;8.90;90.10
26164;DHT22;13914;48.178;11.716;2022-09-30T00:04:01;8.80;90.10
26164;DHT22;13914;48.178;11.716;2022-09-30T00:06:28;8.90;90.10
26164;DHT22;13914;48.178;11.716;2022-09-30T00:08:55;8.90;90.20
26164;DHT22;13914;48.178;11.716;2022-09-30T00:11:26;8.80;90.20
26164;DHT22;13914;48.178;11.716;2022-09-30T00:13:53;8.80;90.20
26164;DHT22;13914;48.178;11.716;2022-09-30T00:16:20;8.80;90.20
26164;DHT22;13914;48.178;11.716;2022-09-30T00:18:47;8.80;90.20
26164;DHT22;13914;48.178;11.716;2022-09-30T00:21:13;8.80;90.20
26164;DHT22;13914;48.178;11.716;2022-09-30T00:23:40;8.80;90.20
26164;DHT22;13914;48.178;11.716;2022-09-30T00:26:09;8.80;90.20
26164;DHT22;13914;48.178;11.716;2022-09-30T00:28:38;8.80;90.20
26164;DHT22;13914;48.178;11.716;2022-09-30T00:31:05;8.80;90.30
26164;DHT22;13914;48.178;11.716;2022-09-30T00:33:34;8.70;90.30
26164;DHT22;13914;48.178;11.716;2022-09-30T00:36:00;8.80;90.30
26164;DHT22;13914;48.178;11.716;2022-09-30T00:38:26;8.80;90.20
26164;DHT22;13914;48.178;11.716;2022-09-30T00:40:52;8.80;90.20
26164;DHT22;13914;48.178;11.716;2022-09-30T00:43:20;8.80;90.20
26164;DHT22;13914;48.178;11.716;2022-09-30T00:46:05;8.80;90.20
26164;DHT22;13914;48.178;11.716;2022-09-30T00:48:34;8.80;90.20
26164;DHT22;13914;48.178;11.716;2022-09-30T00:51:02;8.80;90.20
26164;DHT22;13914;48.178;11.716;2022-09-30T00:53:30;8.80;90.10
26164;DHT22;13914;48.178;11.716;2022-09-30T00:58:40;8.80;90.30
26164;DHT22;13914;48.178;11.716;2022-09-30T01:01:09;8.80;90.20
26164;DHT22;13914;48.178;11.716;2022-09-30T01:03:37;8.80;90.20
26164;DHT22;13914;48.178;11.716;2022-09-30T01:06:31;8.80;90.20
26164;DHT22;13914;48.178;11.716;2022-09-30T01:08:57;8.80;90.10
26164;DHT22;13914;48.178;11.716;2022-09-30T01:11:23;8.80;90.20
26164;DHT22;13914;48.178;11.716;2022-09-30T01:13:50;8.80;90.20
26164;DHT22;13914;48.178;11.716;2022-09-30T01:24:35;8.80;90.20
26164;DHT22;13914;48.178;11.716;2022-09-30T01:33:01;8.80;90.30
26164;DHT22;13914;48.178;11.716;2022-09-30T01:38:04;8.80;90.20
26164;DHT22;13914;48.178;11.716;2022-09-30T01:45:53;8.80;90.80
26164;DHT22;13914;48.178;11.716;2022-09-30T01:51:27;8.80;90.20
26164;DHT22;13914;48.178;11.716;2022-09-30T01:53:59;8.70;90.40
26164;DHT22;13914;48.178;11.716;2022-09-30T01:56:43;8.80;90.40
26164;DHT22;13914;48.178;11.716;2022-09-30T01:59:12;8.80;90.30
26164;DHT22;13914;48.178;11.716;2022-09-30T02:04:25;8.80;90.30
26164;DHT22;13914;48.178;11.716;2022-09-30T02:06:55;8.80;90.20
26164;DHT22;13914;48.178;11.716;2022-09-30T02:09:28;8.80;90.20
26164;DHT22;13914;48.178;11.716;2022-09-30T02:11:56;8.70;90.30
26164;DHT22;13914;48.178;11.716;2022-09-30T02:14:30;8.70;90.30
26164;DHT22;13914;48.178;11.716;2022-09-30T02:17:08;8.80;90.40
26164;DHT22;13914;48.178;11.716;2022-09-30T02:24:43;8.70;90.20
26164;DHT22;13914;48.178;11.716;2022-09-30T02:27:17;8.80;90.30
26164;DHT22;13914;48.178;11.716;2022-09-30T02:29:47;8.80;90.40
26164;DHT22;13914;48.178;11.716;2022-09-30T02:32:19;8.80;90.30
26164;DHT22;13914;48.178;11.716;2022-09-30T02:34:50;8.80;90.40
26164;DHT22;13914;48.178;11.716;2022-09-30T02:37:20;8.70;90.30
26164;DHT22;13914;48.178;11.716;2022-09-30T02:42:41;8.70;90.30
26164;DHT22;13914;48.178;11.716;2022-09-30T02:45:08;8.80;90.30
26164;DHT22;13914;48.178;11.716;2022-09-30T02:50:32;8.70;90.20
26164;DHT22;13914;48.178;11.716;2022-09-30T02:58:15;8.70;90.20
26164;DHT22;13914;48.178;11.716;2022-09-30T03:00:42;8.70;90.20
26164;DHT22;13914;48.178;11.716;2022-09-30T03:03:11;8.70;90.20
26164;DHT22;13914;48.178;11.716;2022-09-30T03:05:42;8.70;90.10
26164;DHT22;13914;48.178;11.716;2022-09-30T03:08:08;8.70;90.20
26164;DHT22;13914;48.178;11.716;2022-09-30T03:10:33;8.70;90.20
26164;DHT22;13914;48.178;11.716;2022-09-30T03:15:37;8.70;90.20
26164;DHT22;13914;48.178;11.716;2022-09-30T03:26:36;8.70;90.20
26164;DHT22;13914;48.178;11.716;2022-09-30T03:35:01;8.70;90.10
26164;DHT22;13914;48.178;11.716;2022-09-30T03:40:25;8.70;90.10
26164;DHT22;13914;48.178;11.716;2022-09-30T03:42:56;8.60;90.10
26164;DHT22;13914;48.178;11.716;2022-09-30T03:45:30;8.60;90.10
26164;DHT22;13914;48.178;11.716;2022-09-30T03:47:58;8.70;90.10
26164;DHT22;13914;48.178;11.716;2022-09-30T03:50:27;8.60;90.10
26164;DHT22;13914;48.178;11.716;2022-09-30T03:52:53;8.60;90.10
26164;DHT22;13914;48.178;11.716;2022-09-30T03:55:19;8.60;90.10
26164;DHT22;13914;48.178;11.716;2022-09-30T03:57:47;8.60;90.30
26164;DHT22;13914;48.178;11.716;2022-09-30T04:00:13;8.60;90.10
26164;DHT22;13914;48.178;11.716;2022-09-30T04:02:39;8.60;90.20
26164;DHT22;13914;48.178;11.716;2022-09-30T04:05:06;8.60;90.10
26164;DHT22;13914;48.178;11.716;2022-09-30T04:07:33;8.60;90.10
26164;DHT22;13914;48.178;11.716;2022-09-30T04:10:00;8.60;90.10
26164;DHT22;13914;48.178;11.716;2022-09-30T04:12:26;8.60;90.10
26164;DHT22;13914;48.178;11.716;2022-09-30T04:14:53;8.60;90.00
26164;DHT22;13914;48.178;11.716;2022-09-30T04:17:18;8.60;90.20
26164;DHT22;13914;48.178;11.716;2022-09-30T04:19:44;8.60;90.10
26164;DHT22;13914;48.178;11.716;2022-09-30T04:22:10;8.60;90.10
26164;DHT22;13914;48.178;11.716;2022-09-30T04:24:35;8.60;90.00
26164;DHT22;13914;48.178;11.716;2022-09-30T04:27:01;8.60;90.10
26164;DHT22;13914;48.178;11.716;2022-09-30T04:29:27;8.60;90.20
26164;DHT22;13914;48.178;11.716;2022-09-30T04:31:53;8.60;90.10
26164;DHT22;13914;48.178;11.716;2022-09-30T04:34:19;8.60;90.20
26164;DHT22;13914;48.178;11.716;2022-09-30T04:36:44;8.60;90.50
26164;DHT22;13914;48.178;11.716;2022-09-30T04:39:10;8.60;90.40
26164;DHT22;13914;48.178;11.716;2022-09-30T04:41:36;8.60;90.30
26164;DHT22;13914;48.178;11.716;2022-09-30T04:44:02;8.60;90.20
26164;DHT22;13914;48.178;11.716;2022-09-30T04:46:32;8.60;90.20
26164;DHT22;13914;48.178;11.716;2022-09-30T04:48:59;8.60;90.10
26164;DHT22;13914;48.178;11.716;2022-09-30T04:51:25;8.50;90.50
26164;DHT22;13914;48.178;11.716;2022-09-30T04:53:51;8.60;90.10
26164;DHT22;13914;48.178;11.716;2022-09-30T04:56:17;8.50;90.10
26164;DHT22;13914;48.178;11.716;2022-09-30T04:58:43;8.50;90.10
26164;DHT22;13914;48.178;11.716;2022-09-30T05:01:10;8.60;90.20
26164;DHT22;13914;48.178;11.716;2022-09-30T05:03:38;8.50;90.10
26164;DHT22;13914;48.178;11.716;2022-09-30T05:06:04;8.50;90.10
26164;DHT22;13914;48.178;11.716;2022-09-30T05:08:31;8.60;90.20
26164;DHT22;13914;48.178;11.716;2022-09-30T05:10:58;8.60;90.20
26164;DHT22;13914;48.178;11.716;2022-09-30T05:13:28;8.50;90.10
26164;DHT22;13914;48.178;11.716;2022-09-30T05:15:55;8.50;90.10
26164;DHT22;13914;48.178;11.716;2022-09-30T05:18:21;8.50;90.10
26164;DHT22;13914;48.178;11.716;2022-09-30T05:20:50;8.50;90.10
26164;DHT22;13914;48.178;11.716;2022-09-30T05:23:17;8.50;90.10
26164;DHT22;13914;48.178;11.716;2022-09-30T05:25:44;8.50;90.10
26164;DHT22;13914;48.178;11.716;2022-09-30T05:28:10;8.60;90.20
26164;DHT22;13914;48.178;11.716;2022-09-30T05:30:36;8.50;90.10
26164;DHT22;13914;48.178;11.716;2022-09-30T05:33:02;8.50;90.20
26164;DHT22;13914;48.178;11.716;2022-09-30T05:35:28;8.50;90.20
26164;DHT22;13914;48.178;11.716;2022-09-30T05:37:54;8.50;90.30
26164;DHT22;13914;48.178;11.716;2022-09-30T05:40:20;8.50;90.20
26164;DHT22;13914;48.178;11.716;2022-09-30T05:42:45;8.50;90.20
26164;DHT22;13914;48.178;11.716;2022-09-30T05:45:11;8.50;90.10
26164;DHT22;13914;48.178;11.716;2022-09-30T05:47:37;8.50;90.10
26164;DHT22;13914;48.178;11.716;2022-09-30T05:50:03;8.50;90.20
26164;DHT22;13914;48.178;11.716;2022-09-30T05:52:30;8.50;90.30
26164;DHT22;13914;48.178;11.716;2022-09-30T05:54:56;8.50;90.20
26164;DHT22;13914;48.178;11.716;2022-09-30T05:57:27;8.50;90.50
26164;DHT22;13914;48.178;11.716;2022-09-30T05:59:54;8.50;90.30
26164;DHT22;13914;48.178;11.716;2022-09-30T06:02:20;8.60;90.20
26164;DHT22;13914;48.178;11.716;2022-09-30T06:04:46;8.60;90.10
26164;DHT22;13914;48.178;11.716;2022-09-30T06:07:11;8.60;90.10
26164;DHT22;13914;48.178;11.716;2022-09-30T06:09:38;8.60;90.10
26164;DHT22;13914;48.178;11.716;2022-09-30T06:12:03;8.60;90.20
26164;DHT22;13914;48.178;11.716;2022-09-30T06:14:30;8.70;90.20
26164;DHT22;13914;48.178;11.716;2022-09-30T06:16:57;8.70;90.20
26164;DHT22;13914;48.178;11.716;2022-09-30T06:19:25;8.70;90.20
26164;DHT22;13914;48.178;11.716;2022-09-30T06:21:55;8.70;90.20
26164;DHT22;13914;48.178;11.716;2022-09-30T06:24:21;8.80;90.20
26164;DHT22;13914;48.178;11.716;2022-09-30T06:26:46;8.80;90.10
26164;DHT22;13914;48.178;11.716;2022-09-30T06:29:12;8.80;90.00
26164;DHT22;13914;48.178;11.716;2022-09-30T06:31:38;8.80;90.10
26164;DHT22;13914;48.178;11.716;2022-09-30T06:34:04;8.80;90.10
26164;DHT22;13914;48.178;11.716;2022-09-30T06:36:31;8.80;90.10
26164;DHT22;13914;48.178;11.716;2022-09-30T06:39:01;8.80;90.00
26164;DHT22;13914;48.178;11.716;2022-09-30T06:41:28;8.90;90.10
26164;DHT22;13914;48.178;11.716;2022-09-30T06:43:54;8.90;90.10
26164;DHT22;13914;48.178;11.716;2022-09-30T06:46:21;8.90;90.00
26164;DHT22;13914;48.178;11.716;2022-09-30T06:48:49;8.90;90.00
26164;DHT22;13914;48.178;11.716;2022-09-30T06:51:18;8.90;90.00
26164;DHT22;13914;48.178;11.716;2022-09-30T06:53:44;8.90;89.90
26164;DHT22;13914;48.178;11.716;2022-09-30T06:56:15;9.00;90.00
26164;DHT22;13914;48.178;11.716;2022-09-30T06:58:42;9.00;90.10
26164;DHT22;13914;48.178;11.716;2022-09-30T07:01:09;9.00;90.00
26164;DHT22;13914;48.178;11.716;2022-09-30T07:03:37;9.10;90.00
26164;DHT22;13914;48.178;11.716;2022-09-30T07:06:04;9.10;90.10
26164;DHT22;13914;48.178;11.716;2022-09-30T07:08:30;9.10;90.10
26164;DHT22;13914;48.178;11.716;2022-09-30T07:10:58;9.20;90.10
26164;DHT22;13914;48.178;11.716;2022-09-30T07:13:36;9.20;90.10
26164;DHT22;13914;48.178;11.716;2022-09-30T07:16:02;9.20;90.10
26164;DHT22;13914;48.178;11.716;2022-09-30T07:18:27;9.30;90.10
26164;DHT22;13914;48.178;11.716;2022-09-30T07:20:53;9.40;90.10
26164;DHT22;13914;48.178;11.716;2022-09-30T07:23:24;9.40;90.20
26164;DHT22;13914;48.178;11.716;2022-09-30T07:26:00;9.50;90.20
26164;DHT22;13914;48.178;11.716;2022-09-30T07:28:30;9.50;90.10
26164;DHT22;13914;48.178;11.716;2022-09-30T07:30:58;9.60;90.10
26164;DHT22;13914;48.178;11.716;2022-09-30T07:33:26;9.60;90.10
26164;DHT22;13914;48.178;11.716;2022-09-30T07:35:54;9.70;90.10
26164;DHT22;13914;48.178;11.716;2022-09-30T07:38:21;9.80;90.10
26164;DHT22;13914;48.178;11.716;2022-09-30T07:41:02;9.80;90.10
26164;DHT22;13914;48.178;11.716;2022-09-30T07:43:30;9.90;90.20
26164;DHT22;13914;48.178;11.716;2022-09-30T07:46:06;10.00;90.20
26164;DHT22;13914;48.178;11.716;2022-09-30T07:48:33;10.00;90.10
26164;DHT22;13914;48.178;11.716;2022-09-30T07:51:14;10.10;90.10
26164;DHT22;13914;48.178;11.716;2022-09-30T07:53:41;10.20;90.10
26164;DHT22;13914;48.178;11.716;2022-09-30T07:56:08;10.30;90.10
26164;DHT22;13914;48.178;11.716;2022-09-30T07:58:34;10.30;90.00
26164;DHT22;13914;48.178;11.716;2022-09-30T08:01:00;10.50;90.10
26164;DHT22;13914;48.178;11.716;2022-09-30T08:03:25;10.50;90.10
26164;DHT22;13914;48.178;11.716;2022-09-30T08:05:51;10.60;90.10
26164;DHT22;13914;48.178;11.716;2022-09-30T08:08:17;10.70;90.20
26164;DHT22;13914;48.178;11.716;2022-09-30T08:10:43;10.80;90.20
26164;DHT22;13914;48.178;11.716;2022-09-30T08:13:08;10.80;90.20
26164;DHT22;13914;48.178;11.716;2022-09-30T08:15:34;10.90;90.20
26164;DHT22;13914;48.178;11.716;2022-09-30T08:18:01;11.00;90.00
26164;DHT22;13914;48.178;11.716;2022-09-30T08:20:26;11.10;90.00
26164;DHT22;13914;48.178;11.716;2022-09-30T08:22:55;11.10;89.90
26164;DHT22;13914;48.178;11.716;2022-09-30T08:25:21;11.20;89.70
26164;DHT22;13914;48.178;11.716;2022-09-30T08:27:47;11.20;89.50
26164;DHT22;13914;48.178;11.716;2022-09-30T08:30:13;11.30;89.60
26164;DHT22;13914;48.178;11.716;2022-09-30T08:32:39;11.30;89.40
26164;DHT22;13914;48.178;11.716;2022-09-30T08:35:04;11.40;89.30
26164;DHT22;13914;48.178;11.716;2022-09-30T08:37:30;11.40;89.30
26164;DHT22;13914;48.178;11.716;2022-09-30T08:39:56;11.50;89.30
26164;DHT22;13914;48.178;11.716;2022-09-30T08:45:18;11.60;89.40
26164;DHT22;13914;48.178;11.716;2022-09-30T08:48:17;11.70;89.30
26164;DHT22;13914;48.178;11.716;2022-09-30T08:53:35;11.90;88.70
26164;DHT22;13914;48.178;11.716;2022-09-30T08:56:03;11.90;88.80
26164;DHT22;13914;48.178;11.716;2022-09-30T08:58:34;12.00;89.00
26164;DHT22;13914;48.178;11.716;2022-09-30T09:01:23;12.10;89.10
26164;DHT22;13914;48.178;11.716;2022-09-30T09:04:01;12.10;88.90
26164;DHT22;13914;48.178;11.716;2022-09-30T09:17:18;12.40;88.50
26164;DHT22;13914;48.178;11.716;2022-09-30T09:20:06;12.50;88.50
26164;DHT22;13914;48.178;11.716;2022-09-30T09:22:36;12.60;88.50
26164;DHT22;13914;48.178;11.716;2022-09-30T09:25:02;12.60;88.40
26164;DHT22;13914;48.178;11.716;2022-09-30T09:30:18;12.70;88.30
26164;DHT22;13914;48.178;11.716;2022-09-30T09:32:48;12.70;88.20
26164;DHT22;13914;48.178;11.716;2022-09-30T09:35:18;12.80;88.40
26164;DHT22;13914;48.178;11.716;2022-09-30T09:37:58;12.80;88.20
26164;DHT22;13914;48.178;11.716;2022-09-30T09:40:56;12.80;88.20
26164;DHT22;13914;48.178;11.716;2022-09-30T09:43:50;12.80;88.10
26164;DHT22;13914;48.178;11.716;2022-09-30T09:51:44;12.90;87.80
26164;DHT22;13914;48.178;11.716;2022-09-30T09:54:14;12.90;87.90
26164;DHT22;13914;48.178;11.716;2022-09-30T09:56:41;12.90;87.90
26164;DHT22;13914;48.178;11.716;2022-09-30T10:01:44;12.90;87.60
26164;DHT22;13914;48.178;11.716;2022-09-30T10:04:16;12.90;87.90
26164;DHT22;13914;48.178;11.716;2022-09-30T10:06:53;12.90;87.80
26164;DHT22;13914;48.178;11.716;2022-09-30T10:09:32;12.90;87.70
26164;DHT22;13914;48.178;11.716;2022-09-30T10:14:38;12.90;87.50
26164;DHT22;13914;48.178;11.716;2022-09-30T10:17:20;12.90;87.60
26164;DHT22;13914;48.178;11.716;2022-09-30T10:19:54;12.90;86.90
26164;DHT22;13914;48.178;11.716;2022-09-30T10:22:42;12.90;87.20
26164;DHT22;13914;48.178;11.716;2022-09-30T10:27:52;12.90;87.00
26164;DHT22;13914;48.178;11.716;2022-09-30T10:30:35;12.90;86.90
26164;DHT22;13914;48.178;11.716;2022-09-30T10:33:10;12.90;86.90
26164;DHT22;13914;48.178;11.716;2022-09-30T10:35:48;12.90;86.80
26164;DHT22;13914;48.178;11.716;2022-09-30T10:38:35;12.90;86.70
26164;DHT22;13914;48.178;11.716;2022-09-30T10:41:02;13.00;87.00
26164;DHT22;13914;48.178;11.716;2022-09-30T10:43:33;13.00;86.70
26164;DHT22;13914;48.178;11.716;2022-09-30T10:46:09;13.00;86.50
26164;DHT22;13914;48.178;11.716;2022-09-30T10:48:36;13.10;86.40
26164;DHT22;13914;48.178;11.716;2022-09-30T10:51:03;13.10;86.20
26164;DHT22;13914;48.178;11.716;2022-09-30T10:53:31;13.10;86.10
26164;DHT22;13914;48.178;11.716;2022-09-30T10:55:58;13.10;86.90
26164;DHT22;13914;48.178;11.716;2022-09-30T11:01:14;13.20;86.60
26164;DHT22;13914;48.178;11.716;2022-09-30T11:04:24;13.20;86.90
26164;DHT22;13914;48.178;11.716;2022-09-30T11:06:34;13.20;86.20
26164;DHT22;13914;48.178;11.716;2022-09-30T11:11:49;13.20;86.70
26164;DHT22;13914;48.178;11.716;2022-09-30T11:19:32;13.30;86.70
26164;DHT22;13914;48.178;11.716;2022-09-30T11:22:10;13.20;86.30
26164;DHT22;13914;48.178;11.716;2022-09-30T11:24:41;13.30;86.80
26164;DHT22;13914;48.178;11.716;2022-09-30T11:30:06;13.30;85.90
26164;DHT22;13914;48.178;11.716;2022-09-30T11:35:27;13.40;86.80
26164;DHT22;13914;48.178;11.716;2022-09-30T11:38:05;13.40;86.50
26164;DHT22;13914;48.178;11.716;2022-09-30T11:40:57;13.40;86.00
26164;DHT22;13914;48.178;11.716;2022-09-30T11:46:24;13.40;85.90
26164;DHT22;13914;48.178;11.716;2022-09-30T11:48:59;13.50;86.30
26164;DHT22;13914;48.178;11.716;2022-09-30T11:57:09;13.50;86.10
26164;DHT22;13914;48.178;11.716;2022-09-30T12:02:25;13.50;86.60
26164;DHT22;13914;48.178;11.716;2022-09-30T12:04:57;13.60;86.60
26164;DHT22;13914;48.178;11.716;2022-09-30T12:07:33;13.60;86.20
26164;DHT22;13914;48.178;11.716;2022-09-30T12:10:19;13.60;86.00
26164;DHT22;13914;48.178;11.716;2022-09-30T12:12:48;13.60;85.60
26164;DHT22;13914;48.178;11.716;2022-09-30T12:15:18;13.60;84.80
26164;DHT22;13914;48.178;11.716;2022-09-30T12:17:49;13.60;86.10
26164;DHT22;13914;48.178;11.716;2022-09-30T12:20:23;13.60;85.00
26164;DHT22;13914;48.178;11.716;2022-09-30T12:22:52;13.70;85.20
26164;DHT22;13914;48.178;11.716;2022-09-30T12:25:35;13.70;85.90
26164;DHT22;13914;48.178;11.716;2022-09-30T12:45:34;14.00;86.50
26164;DHT22;13914;48.178;11.716;2022-09-30T12:48:13;14.00;86.10
26164;DHT22;13914;48.178;11.716;2022-09-30T12:50:46;14.00;86.20
26164;DHT22;13914;48.178;11.716;2022-09-30T12:55:52;14.00;86.50
26164;DHT22;13914;48.178;11.716;2022-09-30T12:58:24;14.00;86.50
26164;DHT22;13914;48.178;11.716;2022-09-30T13:01:04;14.10;86.40
26164;DHT22;13914;48.178;11.716;2022-09-30T13:03:47;14.10;86.40
26164;DHT22;13914;48.178;11.716;2022-09-30T13:06:23;14.10;86.20
26164;DHT22;13914;48.178;11.716;2022-09-30T13:09:36;14.10;86.50
26164;DHT22;13914;48.178;11.716;2022-09-30T13:11:40;14.10;86.40
26164;DHT22;13914;48.178;11.716;2022-09-30T13:14:29;14.10;86.40
26164;DHT22;13914;48.178;11.716;2022-09-30T13:19:42;14.20;85.90
26164;DHT22;13914;48.178;11.716;2022-09-30T13:27:38;14.20;85.50
26164;DHT22;13914;48.178;11.716;2022-09-30T13:32:42;14.20;85.80
26164;DHT22;13914;48.178;11.716;2022-09-30T13:35:34;14.20;86.10
26164;DHT22;13914;48.178;11.716;2022-09-30T13:43:37;14.20;86.00
26164;DHT22;13914;48.178;11.716;2022-09-30T13:48:49;14.20;86.30
26164;DHT22;13914;48.178;11.716;2022-09-30T13:51:17;14.30;86.50
26164;DHT22;13914;48.178;11.716;2022-09-30T13:53:47;14.30;85.20
26164;DHT22;13914;48.178;11.716;2022-09-30T13:56:17;14.20;86.00
26164;DHT22;13914;48.178;11.716;2022-09-30T14:01:44;14.30;85.90
26164;DHT22;13914;48.178;11.716;2022-09-30T14:21:32;14.40;86.10
26164;DHT22;13914;48.178;11.716;2022-09-30T14:24:01;14.40;85.80
26164;DHT22;13914;48.178;11.716;2022-09-30T14:26:44;14.40;85.60
26164;DHT22;13914;48.178;11.716;2022-09-30T14:29:23;14.50;86.10
26164;DHT22;13914;48.178;11.716;2022-09-30T14:31:57;14.50;86.10
26164;DHT22;13914;48.178;11.716;2022-09-30T14:34:24;14.50;85.80
26164;DHT22;13914;48.178;11.716;2022-09-30T14:36:51;14.50;85.10
26164;DHT22;13914;48.178;11.716;2022-09-30T14:39:22;14.50;84.90
26164;DHT22;13914;48.178;11.716;2022-09-30T14:41:52;14.50;85.70
26164;DHT22;13914;48.178;11.716;2022-09-30T14:44:20;14.50;85.90
26164;DHT22;13914;48.178;11.716;2022-09-30T14:46:47;14.50;85.90
26164;DHT22;13914;48.178;11.716;2022-09-30T14:49:19;14.50;85.90
26164;DHT22;13914;48.178;11.716;2022-09-30T14:51:52;14.50;85.10
26164;DHT22;13914;48.178;11.716;2022-09-30T14:54:20;14.50;84.70
26164;DHT22;13914;48.178;11.716;2022-09-30T14:56:47;14.50;85.40
26164;DHT22;13914;48.178;11.716;2022-09-30T14:59:23;14.50;85.70
26164;DHT22;13914;48.178;11.716;2022-09-30T15:01:59;14.40;85.20
26164;DHT22;13914;48.178;11.716;2022-09-30T15:04:27;14.50;85.50
26164;DHT22;13914;48.178;11.716;2022-09-30T15:07:03;14.50;85.70
26164;DHT22;13914;48.178;11.716;2022-09-30T15:09:32;14.50;85.80
26164;DHT22;13914;48.178;11.716;2022-09-30T15:14:51;14.50;85.60
26164;DHT22;13914;48.178;11.716;2022-09-30T15:19:45;14.50;85.70
26164;DHT22;13914;48.178;11.716;2022-09-30T15:22:11;14.40;85.50
26164;DHT22;13914;48.178;11.716;2022-09-30T15:24:38;14.40;84.60
26164;DHT22;13914;48.178;11.716;2022-09-30T15:27:04;14.40;84.90
26164;DHT22;13914;48.178;11.716;2022-09-30T15:29:34;14.40;85.20
26164;DHT22;13914;48.178;11.716;2022-09-30T15:32:02;14.40;85.20
26164;DHT22;13914;48.178;11.716;2022-09-30T15:34:39;14.40;85.30
26164;DHT22;13914;48.178;11.716;2022-09-30T15:37:12;14.40;85.50
26164;DHT22;13914;48.178;11.716;2022-09-30T15:39:49;14.30;85.30
26164;DHT22;13914;48.178;11.716;2022-09-30T15:42:37;14.30;85.50
26164;DHT22;13914;48.178;11.716;2022-09-30T15:47:58;14.30;84.30
26164;DHT22;13914;48.178;11.716;2022-09-30T15:53:03;14.10;83.30
26164;DHT22;13914;48.178;11.716;2022-09-30T15:55:38;14.10;84.30
26164;DHT22;13914;48.178;11.716;2022-09-30T15:58:52;14.10;84.30
26164;DHT22;13914;48.178;11.716;2022-09-30T16:01:11;14.10;84.50
26164;DHT22;13914;48.178;11.716;2022-09-30T16:06:42;14.10;84.20
26164;DHT22;13914;48.178;11.716;2022-09-30T16:09:18;14.10;84.00
26164;DHT22;13914;48.178;11.716;2022-09-30T16:11:58;14.20;84.20
26164;DHT22;13914;48.178;11.716;2022-09-30T16:14:30;14.30;84.80
26164;DHT22;13914;48.178;11.716;2022-09-30T16:17:01;14.30;84.70
26164;DHT22;13914;48.178;11.716;2022-09-30T16:19:28;14.30;84.50
26164;DHT22;13914;48.178;11.716;2022-09-30T16:21:54;14.40;84.90
26164;DHT22;13914;48.178;11.716;2022-09-30T16:27:18;14.40;84.80
26164;DHT22;13914;48.178;11.716;2022-09-30T16:29:46;14.30;85.10
26164;DHT22;13914;48.178;11.716;2022-09-30T16:32:12;14.30;85.20
26164;DHT22;13914;48.178;11.716;2022-09-30T16:34:38;14.30;85.40
26164;DHT22;13914;48.178;11.716;2022-09-30T16:37:11;14.30;85.30
26164;DHT22;13914;48.178;11.716;2022-09-30T16:39:37;14.30;85.40
26164;DHT22;13914;48.178;11.716;2022-09-30T16:42:04;14.20;85.30
26164;DHT22;13914;48.178;11.716;2022-09-30T16:44:30;14.20;85.50
26164;DHT22;13914;48.178;11.716;2022-09-30T16:47:00;14.20;85.60
26164;DHT22;13914;48.178;11.716;2022-09-30T16:49:26;14.20;85.70
26164;DHT22;13914;48.178;11.716;2022-09-30T16:51:52;14.20;85.70
26164;DHT22;13914;48.178;11.716;2022-09-30T16:54:18;14.20;85.90
26164;DHT22;13914;48.178;11.716;2022-09-30T16:56:44;14.10;85.80
26164;DHT22;13914;48.178;11.716;2022-09-30T16:59:13;14.10;86.00
26164;DHT22;13914;48.178;11.716;2022-09-30T17:01:39;14.10;85.90
26164;DHT22;13914;48.178;11.716;2022-09-30T17:04:06;14.10;86.10
26164;DHT22;13914;48.178;11.716;2022-09-30T17:06:32;14.00;86.10
26164;DHT22;13914;48.178;11.716;2022-09-30T17:08:58;14.00;86.20
26164;DHT22;13914;48.178;11.716;2022-09-30T17:11:29;14.00;86.20
26164;DHT22;13914;48.178;11.716;2022-09-30T17:13:57;14.00;85.80
26164;DHT22;13914;48.178;11.716;2022-09-30T17:16:24;13.90;86.20
26164;DHT22;13914;48.178;11.716;2022-09-30T17:18:50;13.90;86.20
26164;DHT22;13914;48.178;11.716;2022-09-30T17:21:17;13.80;86.30
26164;DHT22;13914;48.178;11.716;2022-09-30T17:23:46;13.80;86.30
26164;DHT22;13914;48.178;11.716;2022-09-30T17:26:12;13.80;86.40
26164;DHT22;13914;48.178;11.716;2022-09-30T17:28:38;13.80;86.40
26164;DHT22;13914;48.178;11.716;2022-09-30T17:31:04;13.80;86.50
26164;DHT22;13914;48.178;11.716;2022-09-30T17:33:30;13.70;86.50
26164;DHT22;13914;48.178;11.716;2022-09-30T17:35:57;13.70;86.70
26164;DHT22;13914;48.178;11.716;2022-09-30T17:38:24;13.70;86.70
26164;DHT22;13914;48.178;11.716;2022-09-30T17:40:49;13.70;86.80
26164;DHT22;13914;48.178;11.716;2022-09-30T17:43:34;13.60;86.80
26164;DHT22;13914;48.178;11.716;2022-09-30T17:45:59;13.60;86.90
26164;DHT22;13914;48.178;11.716;2022-09-30T17:48:25;13.60;86.90
26164;DHT22;13914;48.178;11.716;2022-09-30T17:50:51;13.50;86.90
26164;DHT22;13914;48.178;11.716;2022-09-30T17:53:19;13.60;87.10
26164;DHT22;13914;48.178;11.716;2022-09-30T17:55:46;13.50;87.10
26164;DHT22;13914;48.178;11.716;2022-09-30T17:58:16;13.40;87.30
26164;DHT22;13914;48.178;11.716;2022-09-30T18:00:42;13.40;87.30
26164;DHT22;13914;48.178;11.716;2022-09-30T18:03:09;13.40;87.30
26164;DHT22;13914;48.178;11.716;2022-09-30T18:05:35;13.30;87.30
26164;DHT22;13914;48.178;11.716;2022-09-30T18:08:01;13.30;87.30
26164;DHT22;13914;48.178;11.716;2022-09-30T18:10:28;13.30;87.30
26164;DHT22;13914;48.178;11.716;2022-09-30T18:12:54;13.30;87.40
26164;DHT22;13914;48.178;11.716;2022-09-30T18:15:21;13.30;87.40
26164;DHT22;13914;48.178;11.716;2022-09-30T18:17:47;13.20;87.40
26164;DHT22;13914;48.178;11.716;2022-09-30T18:20:14;13.20;87.50
26164;DHT22;13914;48.178;11.716;2022-09-30T18:22:40;13.20;87.50
26164;DHT22;13914;48.178;11.716;2022-09-30T18:25:06;13.20;87.60
26164;DHT22;13914;48.178;11.716;2022-09-30T18:28:06;13.10;87.60
26164;DHT22;13914;48.178;11.716;2022-09-30T18:30:34;13.10;87.60
26164;DHT22;13914;48.178;11.716;2022-09-30T18:33:02;13.10;87.70
26164;DHT22;13914;48.178;11.716;2022-09-30T18:35:34;13.10;87.80
26164;DHT22;13914;48.178;11.716;2022-09-30T18:38:02;13.00;87.80
26164;DHT22;13914;48.178;11.716;2022-09-30T18:40:28;13.00;87.80
26164;DHT22;13914;48.178;11.716;2022-09-30T18:43:02;13.00;88.00
26164;DHT22;13914;48.178;11.716;2022-09-30T18:45:30;12.90;87.70
26164;DHT22;13914;48.178;11.716;2022-09-30T18:47:58;12.90;87.80
26164;DHT22;13914;48.178;11.716;2022-09-30T18:50:25;12.90;88.00
26164;DHT22;13914;48.178;11.716;2022-09-30T18:52:52;12.90;88.00
26164;DHT22;13914;48.178;11.716;2022-09-30T18:55:18;12.90;88.00
26164;DHT22;13914;48.178;11.716;2022-09-30T18:57:45;12.90;88.10
26164;DHT22;13914;48.178;11.716;2022-09-30T19:00:14;12.90;88.10
26164;DHT22;13914;48.178;11.716;2022-09-30T19:02:41;12.80;88.00